sensor_id;sensor_type;location;lat;lon;timestamp;temperature;humidity
24426;DHT22;12611;44.446;26.000;2023-04-16T00:01:25;16.00;64.80
24426;DHT22;12611;44.446;26.000;2023-04-16T00:03:54;16.00;64.70
24426;DHT22;12611;44.446;26.000;2023-04-16T00:06:22;15.90;65.00
24426;DHT22;12611;44.446;26.000;2023-04-16T00:08:51;15.90;65.20
24426;DHT22;12611;44.446;26.000;2023-04-16T00:11:19;15.90;65.80
24426;DHT22;12611;44.446;26.000;2023-04-16T00:13:48;15.80;65.80
24426;DHT22;12611;44.446;26.000;2023-04-16T00:16:16;15.80;66.00
24426;DHT22;12611;44.446;26.000;2023-04-16T00:18:46;15.80;66.50
24426;DHT22;12611;44.446;26.000;2023-04-16T00:21:14;15.70;66.70
24426;DHT22;12611;44.446;26.000;2023-04-16T00:23:42;15.70;66.60
24426;DHT22;12611;44.446;26.000;2023-04-16T00:26:10;15.70;66.90
24426;DHT22;12611;44.446;26.000;2023-04-16T00:28:39;15.60;67.20
24426;DHT22;12611;44.446;26.000;2023-04-16T00:31:07;15.60;67.50
24426;DHT22;12611;44.446;26.000;2023-04-16T00:33:36;15.60;67.20
24426;DHT22;12611;44.446;26.000;2023-04-16T00:36:06;15.50;67.50
24426;DHT22;12611;44.446;26.000;2023-04-16T00:38:34;15.50;67.50
24426;DHT22;12611;44.446;26.000;2023-04-16T00:41:02;15.50;67.50
24426;DHT22;12611;44.446;26.000;2023-04-16T00:43:31;15.50;67.90
24426;DHT22;12611;44.446;26.000;2023-04-16T00:45:59;15.50;68.00
24426;DHT22;12611;44.446;26.000;2023-04-16T00:48:28;15.40;68.50
24426;DHT22;12611;44.446;26.000;2023-04-16T00:50:58;15.40;68.60
24426;DHT22;12611;44.446;26.000;2023-04-16T00:53:29;15.40;68.60
24426;DHT22;12611;44.446;26.000;2023-04-16T00:55:57;15.40;68.80
24426;DHT22;12611;44.446;26.000;2023-04-16T00:58:26;15.30;68.80
24426;DHT22;12611;44.446;26.000;2023-04-16T01:00:55;15.30;68.90
24426;DHT22;12611;44.446;26.000;2023-04-16T01:03:30;15.30;68.90
24426;DHT22;12611;44.446;26.000;2023-04-16T01:06:02;15.30;69.00
24426;DHT22;12611;44.446;26.000;2023-04-16T01:08:32;15.30;69.00
24426;DHT22;12611;44.446;26.000;2023-04-16T01:11:00;15.30;69.40
24426;DHT22;12611;44.446;26.000;2023-04-16T01:13:29;15.30;69.20
24426;DHT22;12611;44.446;26.000;2023-04-16T01:15:57;15.30;68.80
24426;DHT22;12611;44.446;26.000;2023-04-16T01:18:26;15.30;69.60
24426;DHT22;12611;44.446;26.000;2023-04-16T01:20:56;15.30;69.40
24426;DHT22;12611;44.446;26.000;2023-04-16T01:23:24;15.30;69.50
24426;DHT22;12611;44.446;26.000;2023-04-16T01:25:52;15.20;70.50
24426;DHT22;12611;44.446;26.000;2023-04-16T01:28:21;15.20;71.90
24426;DHT22;12611;44.446;26.000;2023-04-16T01:30:50;15.20;71.80
24426;DHT22;12611;44.446;26.000;2023-04-16T01:33:18;15.10;73.00
24426;DHT22;12611;44.446;26.000;2023-04-16T01:35:47;15.10;73.40
24426;DHT22;12611;44.446;26.000;2023-04-16T01:38:16;15.00;74.40
24426;DHT22;12611;44.446;26.000;2023-04-16T01:40:45;15.00;74.30
24426;DHT22;12611;44.446;26.000;2023-04-16T01:43:14;15.00;74.20
24426;DHT22;12611;44.446;26.000;2023-04-16T01:45:43;15.00;74.70
24426;DHT22;12611;44.446;26.000;2023-04-16T01:48:11;15.00;75.00
24426;DHT22;12611;44.446;26.000;2023-04-16T01:50:40;15.00;74.90
24426;DHT22;12611;44.446;26.000;2023-04-16T01:53:08;15.00;75.10
24426;DHT22;12611;44.446;26.000;2023-04-16T01:55:38;14.90;76.20
24426;DHT22;12611;44.446;26.000;2023-04-16T01:58:06;14.90;75.90
24426;DHT22;12611;44.446;26.000;2023-04-16T02:00:36;14.90;76.20
24426;DHT22;12611;44.446;26.000;2023-04-16T02:03:05;14.80;77.30
24426;DHT22;12611;44.446;26.000;2023-04-16T02:05:34;14.80;77.20
24426;DHT22;12611;44.446;26.000;2023-04-16T02:08:03;14.80;78.00
24426;DHT22;12611;44.446;26.000;2023-04-16T02:10:31;14.80;78.10
24426;DHT22;12611;44.446;26.000;2023-04-16T02:13:01;14.80;77.90
24426;DHT22;12611;44.446;26.000;2023-04-16T02:15:29;14.80;78.90
24426;DHT22;12611;44.446;26.000;2023-04-16T02:17:57;14.80;79.10
24426;DHT22;12611;44.446;26.000;2023-04-16T02:20:26;14.80;78.00
24426;DHT22;12611;44.446;26.000;2023-04-16T02:22:54;14.80;79.60
24426;DHT22;12611;44.446;26.000;2023-04-16T02:25:23;14.80;79.30
24426;DHT22;12611;44.446;26.000;2023-04-16T02:27:51;14.80;79.80
24426;DHT22;12611;44.446;26.000;2023-04-16T02:30:21;14.80;79.50
24426;DHT22;12611;44.446;26.000;2023-04-16T02:32:50;14.80;79.60
24426;DHT22;12611;44.446;26.000;2023-04-16T02:35:18;14.80;80.20
24426;DHT22;12611;44.446;26.000;2023-04-16T02:37:47;14.80;81.60
24426;DHT22;12611;44.446;26.000;2023-04-16T02:40:15;14.80;80.50
24426;DHT22;12611;44.446;26.000;2023-04-16T02:42:44;14.80;82.10
24426;DHT22;12611;44.446;26.000;2023-04-16T02:45:12;14.80;82.40
24426;DHT22;12611;44.446;26.000;2023-04-16T02:47:42;14.70;82.80
24426;DHT22;12611;44.446;26.000;2023-04-16T02:50:11;14.70;83.50
24426;DHT22;12611;44.446;26.000;2023-04-16T02:52:39;14.70;84.10
24426;DHT22;12611;44.446;26.000;2023-04-16T02:55:09;14.70;84.40
24426;DHT22;12611;44.446;26.000;2023-04-16T02:57:37;14.60;84.80
24426;DHT22;12611;44.446;26.000;2023-04-16T03:00:07;14.60;84.30
24426;DHT22;12611;44.446;26.000;2023-04-16T03:02:35;14.60;85.20
24426;DHT22;12611;44.446;26.000;2023-04-16T03:05:05;14.60;86.20
24426;DHT22;12611;44.446;26.000;2023-04-16T03:07:34;14.50;86.20
24426;DHT22;12611;44.446;26.000;2023-04-16T03:10:06;14.50;85.90
24426;DHT22;12611;44.446;26.000;2023-04-16T03:12:34;14.50;85.00
24426;DHT22;12611;44.446;26.000;2023-04-16T03:15:03;14.50;86.10
24426;DHT22;12611;44.446;26.000;2023-04-16T03:17:32;14.50;87.00
24426;DHT22;12611;44.446;26.000;2023-04-16T03:20:00;14.50;85.80
24426;DHT22;12611;44.446;26.000;2023-04-16T03:22:30;14.60;86.20
24426;DHT22;12611;44.446;26.000;2023-04-16T03:24:58;14.50;86.80
24426;DHT22;12611;44.446;26.000;2023-04-16T03:27:27;14.60;85.90
24426;DHT22;12611;44.446;26.000;2023-04-16T03:29:55;14.50;86.40
24426;DHT22;12611;44.446;26.000;2023-04-16T03:32:23;14.50;86.80
24426;DHT22;12611;44.446;26.000;2023-04-16T03:34:52;14.50;88.10
24426;DHT22;12611;44.446;26.000;2023-04-16T03:37:20;14.40;87.40
24426;DHT22;12611;44.446;26.000;2023-04-16T03:39:50;14.40;88.90
24426;DHT22;12611;44.446;26.000;2023-04-16T03:42:19;14.40;88.40
24426;DHT22;12611;44.446;26.000;2023-04-16T03:44:47;14.40;88.90
24426;DHT22;12611;44.446;26.000;2023-04-16T03:47:15;14.30;89.50
24426;DHT22;12611;44.446;26.000;2023-04-16T03:49:44;14.30;90.00
24426;DHT22;12611;44.446;26.000;2023-04-16T03:52:12;14.30;89.90
24426;DHT22;12611;44.446;26.000;2023-04-16T03:54:41;14.30;89.50
24426;DHT22;12611;44.446;26.000;2023-04-16T03:57:10;14.30;90.00
24426;DHT22;12611;44.446;26.000;2023-04-16T03:59:39;14.30;90.20
24426;DHT22;12611;44.446;26.000;2023-04-16T04:02:07;14.30;90.40
24426;DHT22;12611;44.446;26.000;2023-04-16T04:04:36;14.30;90.10
24426;DHT22;12611;44.446;26.000;2023-04-16T04:07:04;14.30;90.00
24426;DHT22;12611;44.446;26.000;2023-04-16T04:09:32;14.40;90.00
24426;DHT22;12611;44.446;26.000;2023-04-16T04:12:01;14.40;90.40
24426;DHT22;12611;44.446;26.000;2023-04-16T04:14:31;14.40;90.30
24426;DHT22;12611;44.446;26.000;2023-04-16T04:16:59;14.40;90.10
24426;DHT22;12611;44.446;26.000;2023-04-16T04:19:27;14.40;90.40
24426;DHT22;12611;44.446;26.000;2023-04-16T04:21:55;14.40;90.40
24426;DHT22;12611;44.446;26.000;2023-04-16T04:24:24;14.40;90.70
24426;DHT22;12611;44.446;26.000;2023-04-16T04:26:52;14.40;90.70
24426;DHT22;12611;44.446;26.000;2023-04-16T04:29:21;14.40;90.70
24426;DHT22;12611;44.446;26.000;2023-04-16T04:31:51;14.40;91.20
24426;DHT22;12611;44.446;26.000;2023-04-16T04:34:19;14.40;91.10
24426;DHT22;12611;44.446;26.000;2023-04-16T04:36:47;14.40;91.00
24426;DHT22;12611;44.446;26.000;2023-04-16T04:39:16;14.50;90.90
24426;DHT22;12611;44.446;26.000;2023-04-16T04:41:46;14.50;90.90
24426;DHT22;12611;44.446;26.000;2023-04-16T04:44:14;14.60;90.90
24426;DHT22;12611;44.446;26.000;2023-04-16T04:46:43;14.60;90.70
24426;DHT22;12611;44.446;26.000;2023-04-16T04:49:13;14.60;90.70
24426;DHT22;12611;44.446;26.000;2023-04-16T04:51:41;14.70;90.60
24426;DHT22;12611;44.446;26.000;2023-04-16T04:54:09;14.80;91.00
24426;DHT22;12611;44.446;26.000;2023-04-16T04:56:38;14.80;90.70
24426;DHT22;12611;44.446;26.000;2023-04-16T04:59:06;14.80;90.80
24426;DHT22;12611;44.446;26.000;2023-04-16T05:01:35;14.90;90.70
24426;DHT22;12611;44.446;26.000;2023-04-16T05:04:04;14.90;90.80
24426;DHT22;12611;44.446;26.000;2023-04-16T05:06:34;14.90;90.70
24426;DHT22;12611;44.446;26.000;2023-04-16T05:09:02;15.00;90.70
24426;DHT22;12611;44.446;26.000;2023-04-16T05:11:32;15.00;90.80
24426;DHT22;12611;44.446;26.000;2023-04-16T05:14:01;15.00;90.80
24426;DHT22;12611;44.446;26.000;2023-04-16T05:16:29;15.00;90.90
24426;DHT22;12611;44.446;26.000;2023-04-16T05:18:58;15.10;90.70
24426;DHT22;12611;44.446;26.000;2023-04-16T05:21:26;15.10;90.80
24426;DHT22;12611;44.446;26.000;2023-04-16T05:23:57;15.20;90.80
24426;DHT22;12611;44.446;26.000;2023-04-16T05:26:25;15.20;90.70
24426;DHT22;12611;44.446;26.000;2023-04-16T05:28:54;15.30;90.70
24426;DHT22;12611;44.446;26.000;2023-04-16T05:31:22;15.30;90.80
24426;DHT22;12611;44.446;26.000;2023-04-16T05:33:51;15.40;90.60
24426;DHT22;12611;44.446;26.000;2023-04-16T05:36:19;15.40;90.60
24426;DHT22;12611;44.446;26.000;2023-04-16T05:38:47;15.50;90.70
24426;DHT22;12611;44.446;26.000;2023-04-16T05:41:17;15.50;90.60
24426;DHT22;12611;44.446;26.000;2023-04-16T05:43:46;15.60;90.60
24426;DHT22;12611;44.446;26.000;2023-04-16T05:46:14;15.60;90.60
24426;DHT22;12611;44.446;26.000;2023-04-16T05:48:42;15.60;90.60
24426;DHT22;12611;44.446;26.000;2023-04-16T05:51:11;15.70;90.80
24426;DHT22;12611;44.446;26.000;2023-04-16T05:53:39;15.70;90.70
24426;DHT22;12611;44.446;26.000;2023-04-16T05:56:08;15.80;90.70
24426;DHT22;12611;44.446;26.000;2023-04-16T05:58:37;15.80;90.60
24426;DHT22;12611;44.446;26.000;2023-04-16T06:01:06;15.80;90.70
24426;DHT22;12611;44.446;26.000;2023-04-16T06:03:34;15.90;90.50
24426;DHT22;12611;44.446;26.000;2023-04-16T06:06:03;15.90;90.50
24426;DHT22;12611;44.446;26.000;2023-04-16T06:08:31;16.00;90.40
24426;DHT22;12611;44.446;26.000;2023-04-16T06:10:59;16.00;90.40
24426;DHT22;12611;44.446;26.000;2023-04-16T06:13:28;16.00;90.40
24426;DHT22;12611;44.446;26.000;2023-04-16T06:15:58;16.00;90.20
24426;DHT22;12611;44.446;26.000;2023-04-16T06:18:26;16.10;90.60
24426;DHT22;12611;44.446;26.000;2023-04-16T06:20:55;16.10;90.30
24426;DHT22;12611;44.446;26.000;2023-04-16T06:23:24;16.10;90.40
24426;DHT22;12611;44.446;26.000;2023-04-16T06:25:53;16.20;90.30
24426;DHT22;12611;44.446;26.000;2023-04-16T06:28:21;16.20;90.80
24426;DHT22;12611;44.446;26.000;2023-04-16T06:30:49;16.30;90.50
24426;DHT22;12611;44.446;26.000;2023-04-16T06:33:19;16.50;90.40
24426;DHT22;12611;44.446;26.000;2023-04-16T06:35:48;16.60;90.40
24426;DHT22;12611;44.446;26.000;2023-04-16T06:38:17;16.70;90.40
24426;DHT22;12611;44.446;26.000;2023-04-16T06:40:45;16.80;90.30
24426;DHT22;12611;44.446;26.000;2023-04-16T06:43:13;16.80;90.40
24426;DHT22;12611;44.446;26.000;2023-04-16T06:45:43;16.90;90.30
24426;DHT22;12611;44.446;26.000;2023-04-16T06:48:12;17.00;90.20
24426;DHT22;12611;44.446;26.000;2023-04-16T06:50:41;17.00;90.10
24426;DHT22;12611;44.446;26.000;2023-04-16T06:53:10;17.10;90.00
24426;DHT22;12611;44.446;26.000;2023-04-16T06:55:38;17.20;89.90
24426;DHT22;12611;44.446;26.000;2023-04-16T06:58:06;17.30;90.00
24426;DHT22;12611;44.446;26.000;2023-04-16T07:00:35;17.40;89.80
24426;DHT22;12611;44.446;26.000;2023-04-16T07:03:03;17.40;89.60
24426;DHT22;12611;44.446;26.000;2023-04-16T07:05:32;17.50;89.60
24426;DHT22;12611;44.446;26.000;2023-04-16T07:08:01;17.60;89.70
24426;DHT22;12611;44.446;26.000;2023-04-16T07:10:30;17.70;89.50
24426;DHT22;12611;44.446;26.000;2023-04-16T07:12:58;17.70;89.30
24426;DHT22;12611;44.446;26.000;2023-04-16T07:15:27;17.80;89.90
24426;DHT22;12611;44.446;26.000;2023-04-16T07:17:55;17.80;89.00
24426;DHT22;12611;44.446;26.000;2023-04-16T07:20:24;17.90;89.00
24426;DHT22;12611;44.446;26.000;2023-04-16T07:22:52;18.00;88.80
24426;DHT22;12611;44.446;26.000;2023-04-16T07:25:22;18.00;88.80
24426;DHT22;12611;44.446;26.000;2023-04-16T07:27:51;18.10;88.70
24426;DHT22;12611;44.446;26.000;2023-04-16T07:30:19;18.10;88.80
24426;DHT22;12611;44.446;26.000;2023-04-16T07:32:47;18.20;88.80
24426;DHT22;12611;44.446;26.000;2023-04-16T07:35:16;18.20;88.80
24426;DHT22;12611;44.446;26.000;2023-04-16T07:37:44;18.20;88.60
24426;DHT22;12611;44.446;26.000;2023-04-16T07:40:13;18.30;88.30
24426;DHT22;12611;44.446;26.000;2023-04-16T07:42:43;18.30;88.20
24426;DHT22;12611;44.446;26.000;2023-04-16T07:45:11;18.40;88.10
24426;DHT22;12611;44.446;26.000;2023-04-16T07:47:40;18.40;87.90
24426;DHT22;12611;44.446;26.000;2023-04-16T07:50:09;18.50;88.10
24426;DHT22;12611;44.446;26.000;2023-04-16T07:52:37;18.60;88.00
24426;DHT22;12611;44.446;26.000;2023-04-16T07:55:07;18.70;87.90
24426;DHT22;12611;44.446;26.000;2023-04-16T07:57:37;18.70;87.80
24426;DHT22;12611;44.446;26.000;2023-04-16T08:00:08;18.80;87.60
24426;DHT22;12611;44.446;26.000;2023-04-16T08:02:36;18.80;87.50
24426;DHT22;12611;44.446;26.000;2023-04-16T08:05:06;18.90;87.40
24426;DHT22;12611;44.446;26.000;2023-04-16T08:07:34;18.90;87.00
24426;DHT22;12611;44.446;26.000;2023-04-16T08:10:03;18.90;87.00
24426;DHT22;12611;44.446;26.000;2023-04-16T08:12:32;18.90;86.80
24426;DHT22;12611;44.446;26.000;2023-04-16T08:15:00;19.00;86.70
24426;DHT22;12611;44.446;26.000;2023-04-16T08:17:31;19.00;87.00
24426;DHT22;12611;44.446;26.000;2023-04-16T08:20:00;18.90;87.00
24426;DHT22;12611;44.446;26.000;2023-04-16T08:22:29;18.90;87.00
24426;DHT22;12611;44.446;26.000;2023-04-16T08:24:57;18.90;86.80
24426;DHT22;12611;44.446;26.000;2023-04-16T08:27:25;18.90;87.20
24426;DHT22;12611;44.446;26.000;2023-04-16T08:29:54;18.90;87.10
24426;DHT22;12611;44.446;26.000;2023-04-16T08:32:22;18.90;87.00
24426;DHT22;12611;44.446;26.000;2023-04-16T08:34:52;18.90;87.00
24426;DHT22;12611;44.446;26.000;2023-04-16T08:37:20;19.00;86.90
24426;DHT22;12611;44.446;26.000;2023-04-16T08:39:48;19.10;87.00
24426;DHT22;12611;44.446;26.000;2023-04-16T08:42:31;19.10;86.70
24426;DHT22;12611;44.446;26.000;2023-04-16T08:45:05;19.20;86.70
24426;DHT22;12611;44.446;26.000;2023-04-16T08:47:35;19.40;86.60
24426;DHT22;12611;44.446;26.000;2023-04-16T08:50:06;19.50;86.50
24426;DHT22;12611;44.446;26.000;2023-04-16T08:52:37;19.70;86.10
24426;DHT22;12611;44.446;26.000;2023-04-16T08:55:11;19.80;85.90
24426;DHT22;12611;44.446;26.000;2023-04-16T08:57:46;19.90;85.50
24426;DHT22;12611;44.446;26.000;2023-04-16T09:00:15;20.10;84.80
24426;DHT22;12611;44.446;26.000;2023-04-16T09:02:44;20.20;84.60
24426;DHT22;12611;44.446;26.000;2023-04-16T09:05:15;20.40;84.30
24426;DHT22;12611;44.446;26.000;2023-04-16T09:07:45;20.50;84.00
24426;DHT22;12611;44.446;26.000;2023-04-16T09:10:14;20.60;83.30
24426;DHT22;12611;44.446;26.000;2023-04-16T09:12:43;20.70;83.10
24426;DHT22;12611;44.446;26.000;2023-04-16T09:15:12;20.70;81.90
24426;DHT22;12611;44.446;26.000;2023-04-16T09:17:41;20.70;81.30
24426;DHT22;12611;44.446;26.000;2023-04-16T09:20:10;20.70;81.00
24426;DHT22;12611;44.446;26.000;2023-04-16T09:22:40;20.80;81.20
24426;DHT22;12611;44.446;26.000;2023-04-16T09:25:11;20.90;82.20
24426;DHT22;12611;44.446;26.000;2023-04-16T09:27:40;20.90;81.30
24426;DHT22;12611;44.446;26.000;2023-04-16T09:30:21;20.90;81.00
24426;DHT22;12611;44.446;26.000;2023-04-16T09:32:51;20.80;80.70
24426;DHT22;12611;44.446;26.000;2023-04-16T09:35:44;20.80;80.70
24426;DHT22;12611;44.446;26.000;2023-04-16T09:38:14;20.90;80.50
24426;DHT22;12611;44.446;26.000;2023-04-16T09:40:43;20.90;80.50
24426;DHT22;12611;44.446;26.000;2023-04-16T09:43:16;20.90;80.40
24426;DHT22;12611;44.446;26.000;2023-04-16T09:45:54;21.00;80.10
24426;DHT22;12611;44.446;26.000;2023-04-16T09:48:29;21.10;79.80
24426;DHT22;12611;44.446;26.000;2023-04-16T09:50:58;21.20;79.60
24426;DHT22;12611;44.446;26.000;2023-04-16T09:53:32;21.20;79.70
24426;DHT22;12611;44.446;26.000;2023-04-16T09:56:01;21.30;79.50
24426;DHT22;12611;44.446;26.000;2023-04-16T09:58:30;21.30;79.10
24426;DHT22;12611;44.446;26.000;2023-04-16T10:01:00;21.30;78.60
24426;DHT22;12611;44.446;26.000;2023-04-16T10:03:29;21.40;78.20
24426;DHT22;12611;44.446;26.000;2023-04-16T10:05:59;21.40;77.70
24426;DHT22;12611;44.446;26.000;2023-04-16T10:08:30;21.40;78.00
24426;DHT22;12611;44.446;26.000;2023-04-16T10:10:58;21.40;78.00
24426;DHT22;12611;44.446;26.000;2023-04-16T10:13:27;21.50;78.30
24426;DHT22;12611;44.446;26.000;2023-04-16T10:15:57;21.40;77.90
24426;DHT22;12611;44.446;26.000;2023-04-16T10:18:25;21.30;77.80
24426;DHT22;12611;44.446;26.000;2023-04-16T10:20:54;21.30;78.00
24426;DHT22;12611;44.446;26.000;2023-04-16T10:23:23;21.30;78.30
24426;DHT22;12611;44.446;26.000;2023-04-16T10:25:53;21.30;78.50
24426;DHT22;12611;44.446;26.000;2023-04-16T10:28:23;21.40;78.40
24426;DHT22;12611;44.446;26.000;2023-04-16T10:30:54;21.50;78.50
24426;DHT22;12611;44.446;26.000;2023-04-16T10:33:26;21.50;78.30
24426;DHT22;12611;44.446;26.000;2023-04-16T10:36:07;21.50;77.90
24426;DHT22;12611;44.446;26.000;2023-04-16T10:38:38;21.40;77.80
24426;DHT22;12611;44.446;26.000;2023-04-16T10:41:08;21.50;78.10
24426;DHT22;12611;44.446;26.000;2023-04-16T10:43:42;21.40;78.50
24426;DHT22;12611;44.446;26.000;2023-04-16T10:46:18;21.50;78.70
24426;DHT22;12611;44.446;26.000;2023-04-16T10:48:48;21.50;78.70
24426;DHT22;12611;44.446;26.000;2023-04-16T10:51:28;21.60;79.10
24426;DHT22;12611;44.446;26.000;2023-04-16T10:54:02;21.60;78.90
24426;DHT22;12611;44.446;26.000;2023-04-16T10:56:33;21.80;78.80
24426;DHT22;12611;44.446;26.000;2023-04-16T10:59:04;21.80;78.80
24426;DHT22;12611;44.446;26.000;2023-04-16T11:01:34;21.90;78.30
24426;DHT22;12611;44.446;26.000;2023-04-16T11:04:33;21.90;78.10
24426;DHT22;12611;44.446;26.000;2023-04-16T11:07:07;22.00;78.00
24426;DHT22;12611;44.446;26.000;2023-04-16T11:09:45;22.10;77.70
24426;DHT22;12611;44.446;26.000;2023-04-16T11:12:17;22.20;77.00
24426;DHT22;12611;44.446;26.000;2023-04-16T11:14:48;22.10;77.10
24426;DHT22;12611;44.446;26.000;2023-04-16T11:17:16;21.90;76.70
24426;DHT22;12611;44.446;26.000;2023-04-16T11:19:45;21.80;76.90
24426;DHT22;12611;44.446;26.000;2023-04-16T11:22:15;21.70;78.50
24426;DHT22;12611;44.446;26.000;2023-04-16T11:24:53;21.60;79.30
24426;DHT22;12611;44.446;26.000;2023-04-16T11:27:39;21.50;79.90
24426;DHT22;12611;44.446;26.000;2023-04-16T11:30:28;21.40;80.60
24426;DHT22;12611;44.446;26.000;2023-04-16T11:32:57;21.20;81.00
24426;DHT22;12611;44.446;26.000;2023-04-16T11:35:25;21.10;81.60
24426;DHT22;12611;44.446;26.000;2023-04-16T11:37:55;21.00;81.60
24426;DHT22;12611;44.446;26.000;2023-04-16T11:40:24;20.90;81.70
24426;DHT22;12611;44.446;26.000;2023-04-16T11:43:00;20.90;82.10
24426;DHT22;12611;44.446;26.000;2023-04-16T11:45:29;20.80;82.70
24426;DHT22;12611;44.446;26.000;2023-04-16T11:47:58;20.80;82.50
24426;DHT22;12611;44.446;26.000;2023-04-16T11:50:27;20.60;82.60
24426;DHT22;12611;44.446;26.000;2023-04-16T11:53:05;20.60;82.60
24426;DHT22;12611;44.446;26.000;2023-04-16T11:55:42;20.50;82.80
24426;DHT22;12611;44.446;26.000;2023-04-16T11:58:12;20.40;82.50
24426;DHT22;12611;44.446;26.000;2023-04-16T12:00:43;20.30;82.10
24426;DHT22;12611;44.446;26.000;2023-04-16T12:03:11;20.30;82.10
24426;DHT22;12611;44.446;26.000;2023-04-16T12:05:40;20.20;82.10
24426;DHT22;12611;44.446;26.000;2023-04-16T12:08:09;20.20;81.80
24426;DHT22;12611;44.446;26.000;2023-04-16T12:10:53;20.10;81.40
24426;DHT22;12611;44.446;26.000;2023-04-16T12:13:24;20.00;81.60
24426;DHT22;12611;44.446;26.000;2023-04-16T12:15:53;20.00;82.70
24426;DHT22;12611;44.446;26.000;2023-04-16T12:18:23;19.90;82.20
24426;DHT22;12611;44.446;26.000;2023-04-16T12:20:53;19.90;82.20
24426;DHT22;12611;44.446;26.000;2023-04-16T12:23:22;19.80;82.70
24426;DHT22;12611;44.446;26.000;2023-04-16T12:25:51;19.70;83.00
24426;DHT22;12611;44.446;26.000;2023-04-16T12:28:29;19.60;83.20
24426;DHT22;12611;44.446;26.000;2023-04-16T12:30:58;19.40;84.10
24426;DHT22;12611;44.446;26.000;2023-04-16T12:33:26;19.30;85.20
24426;DHT22;12611;44.446;26.000;2023-04-16T12:35:54;19.20;85.70
24426;DHT22;12611;44.446;26.000;2023-04-16T12:38:23;19.10;86.30
24426;DHT22;12611;44.446;26.000;2023-04-16T12:40:53;19.00;87.50
24426;DHT22;12611;44.446;26.000;2023-04-16T12:43:23;18.90;88.70
24426;DHT22;12611;44.446;26.000;2023-04-16T12:45:53;18.80;88.30
24426;DHT22;12611;44.446;26.000;2023-04-16T12:48:22;18.70;89.60
24426;DHT22;12611;44.446;26.000;2023-04-16T12:50:52;18.60;90.10
24426;DHT22;12611;44.446;26.000;2023-04-16T12:53:21;18.50;90.20
24426;DHT22;12611;44.446;26.000;2023-04-16T12:55:50;18.50;90.20
24426;DHT22;12611;44.446;26.000;2023-04-16T12:58:18;18.40;90.40
24426;DHT22;12611;44.446;26.000;2023-04-16T13:00:47;18.30;91.10
24426;DHT22;12611;44.446;26.000;2023-04-16T13:03:16;18.10;91.60
24426;DHT22;12611;44.446;26.000;2023-04-16T13:05:47;18.00;91.70
24426;DHT22;12611;44.446;26.000;2023-04-16T13:08:15;17.90;92.50
24426;DHT22;12611;44.446;26.000;2023-04-16T13:10:43;17.80;92.40
24426;DHT22;12611;44.446;26.000;2023-04-16T13:13:12;17.70;92.70
24426;DHT22;12611;44.446;26.000;2023-04-16T13:15:40;17.70;92.50
24426;DHT22;12611;44.446;26.000;2023-04-16T13:18:08;17.70;92.20
24426;DHT22;12611;44.446;26.000;2023-04-16T13:20:38;17.70;92.30
24426;DHT22;12611;44.446;26.000;2023-04-16T13:23:07;17.70;92.30
24426;DHT22;12611;44.446;26.000;2023-04-16T13:25:35;17.60;92.10
24426;DHT22;12611;44.446;26.000;2023-04-16T13:28:04;17.60;92.00
24426;DHT22;12611;44.446;26.000;2023-04-16T13:30:32;17.60;91.80
24426;DHT22;12611;44.446;26.000;2023-04-16T13:33:01;17.50;91.70
24426;DHT22;12611;44.446;26.000;2023-04-16T13:35:29;17.50;91.60
24426;DHT22;12611;44.446;26.000;2023-04-16T13:37:59;17.50;91.60
24426;DHT22;12611;44.446;26.000;2023-04-16T13:40:27;17.50;92.10
24426;DHT22;12611;44.446;26.000;2023-04-16T13:42:56;17.50;91.80
24426;DHT22;12611;44.446;26.000;2023-04-16T13:45:24;17.40;92.60
24426;DHT22;12611;44.446;26.000;2023-04-16T13:47:54;17.40;92.70
24426;DHT22;12611;44.446;26.000;2023-04-16T13:50:22;17.40;92.70
24426;DHT22;12611;44.446;26.000;2023-04-16T13:53:10;17.50;92.70
24426;DHT22;12611;44.446;26.000;2023-04-16T13:55:38;17.50;92.60
24426;DHT22;12611;44.446;26.000;2023-04-16T13:58:07;17.50;92.60
24426;DHT22;12611;44.446;26.000;2023-04-16T14:00:36;17.50;92.40
24426;DHT22;12611;44.446;26.000;2023-04-16T14:03:13;17.50;92.10
24426;DHT22;12611;44.446;26.000;2023-04-16T14:05:43;17.50;91.70
24426;DHT22;12611;44.446;26.000;2023-04-16T14:08:14;17.60;91.60
24426;DHT22;12611;44.446;26.000;2023-04-16T14:10:42;17.50;91.40
24426;DHT22;12611;44.446;26.000;2023-04-16T14:13:11;17.50;91.30
24426;DHT22;12611;44.446;26.000;2023-04-16T14:15:39;17.60;91.30
24426;DHT22;12611;44.446;26.000;2023-04-16T14:18:08;18.00;91.00
24426;DHT22;12611;44.446;26.000;2023-04-16T14:20:36;18.90;90.10
24426;DHT22;12611;44.446;26.000;2023-04-16T14:23:05;19.20;90.00
24426;DHT22;12611;44.446;26.000;2023-04-16T14:25:35;18.90;89.50
24426;DHT22;12611;44.446;26.000;2023-04-16T14:28:04;18.70;89.10
24426;DHT22;12611;44.446;26.000;2023-04-16T14:30:32;18.40;89.30
24426;DHT22;12611;44.446;26.000;2023-04-16T14:33:04;18.30;89.90
24426;DHT22;12611;44.446;26.000;2023-04-16T14:35:33;18.20;90.00
24426;DHT22;12611;44.446;26.000;2023-04-16T14:38:01;18.50;90.00
24426;DHT22;12611;44.446;26.000;2023-04-16T14:40:30;18.70;89.60
24426;DHT22;12611;44.446;26.000;2023-04-16T14:43:00;18.80;89.40
24426;DHT22;12611;44.446;26.000;2023-04-16T14:45:28;19.30;89.10
24426;DHT22;12611;44.446;26.000;2023-04-16T14:47:58;19.10;88.50
24426;DHT22;12611;44.446;26.000;2023-04-16T14:50:26;19.50;87.60
24426;DHT22;12611;44.446;26.000;2023-04-16T14:52:55;19.90;87.70
24426;DHT22;12611;44.446;26.000;2023-04-16T14:55:23;20.00;87.70
24426;DHT22;12611;44.446;26.000;2023-04-16T14:57:51;19.80;86.00
24426;DHT22;12611;44.446;26.000;2023-04-16T15:00:22;19.80;86.10
24426;DHT22;12611;44.446;26.000;2023-04-16T15:02:50;19.70;85.90
24426;DHT22;12611;44.446;26.000;2023-04-16T15:05:19;19.50;86.00
24426;DHT22;12611;44.446;26.000;2023-04-16T15:07:47;19.30;86.00
24426;DHT22;12611;44.446;26.000;2023-04-16T15:10:16;19.10;86.10
24426;DHT22;12611;44.446;26.000;2023-04-16T15:12:44;19.00;86.30
24426;DHT22;12611;44.446;26.000;2023-04-16T15:15:13;18.90;86.60
24426;DHT22;12611;44.446;26.000;2023-04-16T15:17:43;18.70;87.20
24426;DHT22;12611;44.446;26.000;2023-04-16T15:20:12;18.50;87.60
24426;DHT22;12611;44.446;26.000;2023-04-16T15:22:40;18.30;88.40
24426;DHT22;12611;44.446;26.000;2023-04-16T15:25:09;18.20;88.30
24426;DHT22;12611;44.446;26.000;2023-04-16T15:27:37;18.10;89.00
24426;DHT22;12611;44.446;26.000;2023-04-16T15:30:07;18.00;89.10